sensor_id;sensor_type;location;lat;lon;timestamp;temperature;humidity
21906;DHT22;11117;48.644;9.006;2023-02-15T00:00:11;1.50;99.90
21906;DHT22;11117;48.644;9.006;2023-02-15T00:02:37;1.40;99.90
21906;DHT22;11117;48.644;9.006;2023-02-15T00:05:03;1.40;99.90
21906;DHT22;11117;48.644;9.006;2023-02-15T00:07:29;1.40;99.90
21906;DHT22;11117;48.644;9.006;2023-02-15T00:09:54;1.40;99.90
21906;DHT22;11117;48.644;9.006;2023-02-15T00:12:20;1.40;99.90
21906;DHT22;11117;48.644;9.006;2023-02-15T00:14:45;1.40;99.90
21906;DHT22;11117;48.644;9.006;2023-02-15T00:17:11;1.40;99.90
21906;DHT22;11117;48.644;9.006;2023-02-15T00:19:36;1.40;99.90
21906;DHT22;11117;48.644;9.006;2023-02-15T00:22:02;1.30;99.90
21906;DHT22;11117;48.644;9.006;2023-02-15T00:24:27;1.30;99.90
21906;DHT22;11117;48.644;9.006;2023-02-15T00:26:53;1.40;99.90
21906;DHT22;11117;48.644;9.006;2023-02-15T00:29:19;1.40;99.90
21906;DHT22;11117;48.644;9.006;2023-02-15T00:31:45;1.40;99.90
21906;DHT22;11117;48.644;9.006;2023-02-15T00:34:20;1.40;99.90
21906;DHT22;11117;48.644;9.006;2023-02-15T00:36:47;1.40;99.90
21906;DHT22;11117;48.644;9.006;2023-02-15T00:39:13;1.40;99.90
21906;DHT22;11117;48.644;9.006;2023-02-15T00:41:39;1.40;99.90
21906;DHT22;11117;48.644;9.006;2023-02-15T00:44:05;1.50;99.90
21906;DHT22;11117;48.644;9.006;2023-02-15T00:46:31;1.40;99.90
21906;DHT22;11117;48.644;9.006;2023-02-15T00:48:57;1.50;99.90
21906;DHT22;11117;48.644;9.006;2023-02-15T00:51:22;1.40;99.90
21906;DHT22;11117;48.644;9.006;2023-02-15T00:53:49;1.50;99.90
21906;DHT22;11117;48.644;9.006;2023-02-15T00:56:14;1.30;99.90
21906;DHT22;11117;48.644;9.006;2023-02-15T00:58:40;1.40;99.90
21906;DHT22;11117;48.644;9.006;2023-02-15T01:01:12;1.50;99.90
21906;DHT22;11117;48.644;9.006;2023-02-15T01:03:38;1.50;99.90
21906;DHT22;11117;48.644;9.006;2023-02-15T01:06:04;1.50;99.90
21906;DHT22;11117;48.644;9.006;2023-02-15T01:08:30;1.50;99.90
21906;DHT22;11117;48.644;9.006;2023-02-15T01:10:56;1.50;99.90
21906;DHT22;11117;48.644;9.006;2023-02-15T01:13:22;1.60;99.90
21906;DHT22;11117;48.644;9.006;2023-02-15T01:15:54;1.60;99.90
21906;DHT22;11117;48.644;9.006;2023-02-15T01:18:21;1.50;99.90
21906;DHT22;11117;48.644;9.006;2023-02-15T01:20:48;1.50;99.90
21906;DHT22;11117;48.644;9.006;2023-02-15T01:23:13;1.50;99.90
21906;DHT22;11117;48.644;9.006;2023-02-15T01:25:39;1.40;99.90
21906;DHT22;11117;48.644;9.006;2023-02-15T01:28:05;1.40;99.90
21906;DHT22;11117;48.644;9.006;2023-02-15T01:30:31;1.30;99.90
21906;DHT22;11117;48.644;9.006;2023-02-15T01:32:56;1.30;99.90
21906;DHT22;11117;48.644;9.006;2023-02-15T01:35:22;1.20;99.90
21906;DHT22;11117;48.644;9.006;2023-02-15T01:37:48;1.10;99.90
21906;DHT22;11117;48.644;9.006;2023-02-15T01:40:16;1.10;99.90
21906;DHT22;11117;48.644;9.006;2023-02-15T01:42:43;1.00;99.90
21906;DHT22;11117;48.644;9.006;2023-02-15T01:45:19;0.90;99.90
21906;DHT22;11117;48.644;9.006;2023-02-15T01:47:49;0.80;99.90
21906;DHT22;11117;48.644;9.006;2023-02-15T01:50:27;0.80;99.90
21906;DHT22;11117;48.644;9.006;2023-02-15T01:53:01;0.90;99.90
21906;DHT22;11117;48.644;9.006;2023-02-15T01:55:35;0.90;99.90
21906;DHT22;11117;48.644;9.006;2023-02-15T01:58:02;0.90;99.90
21906;DHT22;11117;48.644;9.006;2023-02-15T02:00:28;0.90;99.90
21906;DHT22;11117;48.644;9.006;2023-02-15T02:02:55;0.90;99.90
21906;DHT22;11117;48.644;9.006;2023-02-15T02:05:22;0.90;99.90
21906;DHT22;11117;48.644;9.006;2023-02-15T02:07:49;0.90;99.90
21906;DHT22;11117;48.644;9.006;2023-02-15T02:10:19;0.90;99.90
21906;DHT22;11117;48.644;9.006;2023-02-15T02:12:46;0.90;99.90
21906;DHT22;11117;48.644;9.006;2023-02-15T02:15:13;0.90;99.90
21906;DHT22;11117;48.644;9.006;2023-02-15T02:32:50;0.80;99.90
21906;DHT22;11117;48.644;9.006;2023-02-15T02:35:27;0.80;99.90
21906;DHT22;11117;48.644;9.006;2023-02-15T02:40:56;0.80;99.90
21906;DHT22;11117;48.644;9.006;2023-02-15T02:43:48;0.70;99.90
21906;DHT22;11117;48.644;9.006;2023-02-15T02:46:28;0.70;99.90
21906;DHT22;11117;48.644;9.006;2023-02-15T02:48:55;0.60;99.90
21906;DHT22;11117;48.644;9.006;2023-02-15T02:51:22;0.60;99.90
21906;DHT22;11117;48.644;9.006;2023-02-15T02:53:57;0.60;99.90
21906;DHT22;11117;48.644;9.006;2023-02-15T02:56:45;0.70;99.90
21906;DHT22;11117;48.644;9.006;2023-02-15T02:59:40;0.70;99.90
21906;DHT22;11117;48.644;9.006;2023-02-15T03:02:29;0.60;99.90
21906;DHT22;11117;48.644;9.006;2023-02-15T03:05:01;0.30;99.90
21906;DHT22;11117;48.644;9.006;2023-02-15T03:07:28;0.10;99.90
21906;DHT22;11117;48.644;9.006;2023-02-15T03:09:57;0.00;99.90
21906;DHT22;11117;48.644;9.006;2023-02-15T03:12:30;0.00;99.90
21906;DHT22;11117;48.644;9.006;2023-02-15T03:15:01;0.00;99.90
21906;DHT22;11117;48.644;9.006;2023-02-15T03:17:32;-0.10;99.90
21906;DHT22;11117;48.644;9.006;2023-02-15T03:20:08;-0.10;99.90
21906;DHT22;11117;48.644;9.006;2023-02-15T03:22:37;-0.20;99.90
21906;DHT22;11117;48.644;9.006;2023-02-15T03:25:18;-0.10;99.90
21906;DHT22;11117;48.644;9.006;2023-02-15T03:27:47;-0.10;99.90
21906;DHT22;11117;48.644;9.006;2023-02-15T03:30:18;-0.20;99.90
21906;DHT22;11117;48.644;9.006;2023-02-15T03:32:47;-0.30;99.90
21906;DHT22;11117;48.644;9.006;2023-02-15T03:35:13;-0.30;99.90
21906;DHT22;11117;48.644;9.006;2023-02-15T03:37:42;-0.20;99.90
21906;DHT22;11117;48.644;9.006;2023-02-15T03:40:18;-0.20;99.90
21906;DHT22;11117;48.644;9.006;2023-02-15T03:42:45;-0.20;99.90
21906;DHT22;11117;48.644;9.006;2023-02-15T03:45:15;-0.10;99.90
21906;DHT22;11117;48.644;9.006;2023-02-15T03:47:46;-0.10;99.90
21906;DHT22;11117;48.644;9.006;2023-02-15T03:50:26;-0.10;99.90
21906;DHT22;11117;48.644;9.006;2023-02-15T03:52:54;-0.20;99.90
21906;DHT22;11117;48.644;9.006;2023-02-15T03:55:20;-0.40;99.90
21906;DHT22;11117;48.644;9.006;2023-02-15T03:57:46;-0.40;99.90
21906;DHT22;11117;48.644;9.006;2023-02-15T04:00:15;-0.50;99.90
21906;DHT22;11117;48.644;9.006;2023-02-15T04:03:18;-0.50;99.90
21906;DHT22;11117;48.644;9.006;2023-02-15T04:05:47;-0.60;99.90
21906;DHT22;11117;48.644;9.006;2023-02-15T04:08:13;-0.60;99.90
21906;DHT22;11117;48.644;9.006;2023-02-15T04:10:38;-0.60;99.90
21906;DHT22;11117;48.644;9.006;2023-02-15T04:13:04;-0.50;99.90
21906;DHT22;11117;48.644;9.006;2023-02-15T04:15:30;-0.50;99.90
21906;DHT22;11117;48.644;9.006;2023-02-15T04:17:55;-0.40;99.90
21906;DHT22;11117;48.644;9.006;2023-02-15T04:20:21;-0.30;99.90
21906;DHT22;11117;48.644;9.006;2023-02-15T04:22:46;-0.30;99.90
21906;DHT22;11117;48.644;9.006;2023-02-15T04:25:12;-0.40;99.90
21906;DHT22;11117;48.644;9.006;2023-02-15T04:27:38;-0.30;99.90
21906;DHT22;11117;48.644;9.006;2023-02-15T04:30:05;-0.30;99.90
21906;DHT22;11117;48.644;9.006;2023-02-15T04:32:31;-0.20;99.90
21906;DHT22;11117;48.644;9.006;2023-02-15T04:34:56;-0.20;99.90
21906;DHT22;11117;48.644;9.006;2023-02-15T04:37:22;-0.10;99.90
21906;DHT22;11117;48.644;9.006;2023-02-15T04:39:47;-0.10;99.90
21906;DHT22;11117;48.644;9.006;2023-02-15T04:42:13;-0.10;99.90
21906;DHT22;11117;48.644;9.006;2023-02-15T04:44:39;0.00;99.90
21906;DHT22;11117;48.644;9.006;2023-02-15T04:47:04;0.10;99.90
21906;DHT22;11117;48.644;9.006;2023-02-15T04:49:30;0.10;99.90
21906;DHT22;11117;48.644;9.006;2023-02-15T04:51:55;0.10;99.90
21906;DHT22;11117;48.644;9.006;2023-02-15T04:54:21;0.10;99.90
21906;DHT22;11117;48.644;9.006;2023-02-15T04:56:46;0.10;99.90
21906;DHT22;11117;48.644;9.006;2023-02-15T04:59:12;-0.10;99.90
21906;DHT22;11117;48.644;9.006;2023-02-15T05:01:38;-0.30;99.90
21906;DHT22;11117;48.644;9.006;2023-02-15T05:04:03;-0.40;99.90
21906;DHT22;11117;48.644;9.006;2023-02-15T05:06:29;-0.50;99.90
21906;DHT22;11117;48.644;9.006;2023-02-15T05:08:55;-0.50;99.90
21906;DHT22;11117;48.644;9.006;2023-02-15T05:11:20;-0.50;99.90
21906;DHT22;11117;48.644;9.006;2023-02-15T05:13:46;-0.50;99.90
21906;DHT22;11117;48.644;9.006;2023-02-15T05:16:12;-0.50;99.90
21906;DHT22;11117;48.644;9.006;2023-02-15T05:18:37;-0.50;99.90
21906;DHT22;11117;48.644;9.006;2023-02-15T05:21:03;-0.50;99.90
21906;DHT22;11117;48.644;9.006;2023-02-15T05:23:29;-0.50;99.90
21906;DHT22;11117;48.644;9.006;2023-02-15T05:25:54;-0.50;99.90
21906;DHT22;11117;48.644;9.006;2023-02-15T05:28:20;-0.40;99.90
21906;DHT22;11117;48.644;9.006;2023-02-15T05:30:50;-0.20;99.90
21906;DHT22;11117;48.644;9.006;2023-02-15T05:33:17;-0.20;99.90
21906;DHT22;11117;48.644;9.006;2023-02-15T05:35:43;-0.10;99.90
21906;DHT22;11117;48.644;9.006;2023-02-15T05:38:08;-0.10;99.90
21906;DHT22;11117;48.644;9.006;2023-02-15T05:40:34;-0.10;99.90
21906;DHT22;11117;48.644;9.006;2023-02-15T05:42:59;-0.10;99.90
21906;DHT22;11117;48.644;9.006;2023-02-15T05:45:25;0.00;99.90
21906;DHT22;11117;48.644;9.006;2023-02-15T05:47:51;0.00;99.90
21906;DHT22;11117;48.644;9.006;2023-02-15T05:50:16;0.10;99.90
21906;DHT22;11117;48.644;9.006;2023-02-15T05:52:42;0.10;99.90
21906;DHT22;11117;48.644;9.006;2023-02-15T05:55:08;0.10;99.90
21906;DHT22;11117;48.644;9.006;2023-02-15T05:57:33;0.20;99.90
21906;DHT22;11117;48.644;9.006;2023-02-15T05:59:59;0.20;99.90
21906;DHT22;11117;48.644;9.006;2023-02-15T06:02:24;0.10;99.90
21906;DHT22;11117;48.644;9.006;2023-02-15T06:04:50;0.20;99.90
21906;DHT22;11117;48.644;9.006;2023-02-15T06:07:15;0.20;99.90
21906;DHT22;11117;48.644;9.006;2023-02-15T06:09:41;0.20;99.90
21906;DHT22;11117;48.644;9.006;2023-02-15T06:12:06;0.30;99.90
21906;DHT22;11117;48.644;9.006;2023-02-15T06:14:32;0.20;99.90
21906;DHT22;11117;48.644;9.006;2023-02-15T06:16:57;0.20;99.90
21906;DHT22;11117;48.644;9.006;2023-02-15T06:19:23;0.20;99.90
21906;DHT22;11117;48.644;9.006;2023-02-15T06:21:49;0.20;99.90
21906;DHT22;11117;48.644;9.006;2023-02-15T06:24:15;0.20;99.90
21906;DHT22;11117;48.644;9.006;2023-02-15T06:26:40;0.10;99.90
21906;DHT22;11117;48.644;9.006;2023-02-15T06:29:06;0.10;99.90
21906;DHT22;11117;48.644;9.006;2023-02-15T06:31:32;0.00;99.90
21906;DHT22;11117;48.644;9.006;2023-02-15T06:33:57;0.00;99.90
21906;DHT22;11117;48.644;9.006;2023-02-15T06:36:23;0.10;99.90
21906;DHT22;11117;48.644;9.006;2023-02-15T06:38:48;0.10;99.90
21906;DHT22;11117;48.644;9.006;2023-02-15T06:41:14;0.10;99.90
21906;DHT22;11117;48.644;9.006;2023-02-15T06:43:39;0.20;99.90
21906;DHT22;11117;48.644;9.006;2023-02-15T06:46:05;0.20;99.90
21906;DHT22;11117;48.644;9.006;2023-02-15T06:48:30;0.20;99.90
21906;DHT22;11117;48.644;9.006;2023-02-15T06:50:56;0.30;99.90
21906;DHT22;11117;48.644;9.006;2023-02-15T06:53:21;0.30;99.90
21906;DHT22;11117;48.644;9.006;2023-02-15T06:55:47;0.40;99.90
21906;DHT22;11117;48.644;9.006;2023-02-15T06:58:12;0.40;99.90
21906;DHT22;11117;48.644;9.006;2023-02-15T07:00:38;0.50;99.90
21906;DHT22;11117;48.644;9.006;2023-02-15T07:03:03;0.60;99.90
21906;DHT22;11117;48.644;9.006;2023-02-15T07:05:33;0.80;99.90
21906;DHT22;11117;48.644;9.006;2023-02-15T07:07:59;0.90;99.90
21906;DHT22;11117;48.644;9.006;2023-02-15T07:10:27;0.90;99.90
21906;DHT22;11117;48.644;9.006;2023-02-15T07:12:53;1.10;99.90
21906;DHT22;11117;48.644;9.006;2023-02-15T07:15:19;1.20;99.90
21906;DHT22;11117;48.644;9.006;2023-02-15T07:17:45;1.30;99.90
21906;DHT22;11117;48.644;9.006;2023-02-15T07:20:13;1.40;99.90
21906;DHT22;11117;48.644;9.006;2023-02-15T07:22:39;1.50;99.90
21906;DHT22;11117;48.644;9.006;2023-02-15T07:25:07;1.70;99.90
21906;DHT22;11117;48.644;9.006;2023-02-15T07:27:33;1.70;99.90
21906;DHT22;11117;48.644;9.006;2023-02-15T07:29:59;1.80;99.90
21906;DHT22;11117;48.644;9.006;2023-02-15T07:32:30;2.00;99.90
21906;DHT22;11117;48.644;9.006;2023-02-15T07:34:57;2.10;99.90
21906;DHT22;11117;48.644;9.006;2023-02-15T07:37:23;2.20;99.90
21906;DHT22;11117;48.644;9.006;2023-02-15T07:39:49;2.30;99.90
21906;DHT22;11117;48.644;9.006;2023-02-15T07:42:14;2.40;99.90
21906;DHT22;11117;48.644;9.006;2023-02-15T07:44:40;2.50;99.90
21906;DHT22;11117;48.644;9.006;2023-02-15T07:47:06;2.60;99.90
21906;DHT22;11117;48.644;9.006;2023-02-15T07:49:31;2.70;99.90
21906;DHT22;11117;48.644;9.006;2023-02-15T07:51:57;2.80;99.90
21906;DHT22;11117;48.644;9.006;2023-02-15T07:54:22;2.90;99.90
21906;DHT22;11117;48.644;9.006;2023-02-15T07:56:48;3.00;99.90
21906;DHT22;11117;48.644;9.006;2023-02-15T07:59:13;3.10;99.90
21906;DHT22;11117;48.644;9.006;2023-02-15T08:01:39;3.20;99.90
21906;DHT22;11117;48.644;9.006;2023-02-15T08:04:06;3.20;99.90
21906;DHT22;11117;48.644;9.006;2023-02-15T08:06:34;3.40;99.90
21906;DHT22;11117;48.644;9.006;2023-02-15T08:09:00;3.50;99.90
21906;DHT22;11117;48.644;9.006;2023-02-15T08:11:27;3.60;99.90
21906;DHT22;11117;48.644;9.006;2023-02-15T08:14:05;3.80;99.90
21906;DHT22;11117;48.644;9.006;2023-02-15T08:16:51;3.80;99.90
21906;DHT22;11117;48.644;9.006;2023-02-15T08:19:22;4.00;99.90
21906;DHT22;11117;48.644;9.006;2023-02-15T08:21:56;4.00;99.90
21906;DHT22;11117;48.644;9.006;2023-02-15T08:24:23;4.00;99.90
21906;DHT22;11117;48.644;9.006;2023-02-15T08:26:49;3.90;99.90
21906;DHT22;11117;48.644;9.006;2023-02-15T08:29:17;4.00;99.90
21906;DHT22;11117;48.644;9.006;2023-02-15T08:31:43;3.80;99.90
21906;DHT22;11117;48.644;9.006;2023-02-15T08:34:10;3.70;99.90
21906;DHT22;11117;48.644;9.006;2023-02-15T08:36:36;3.70;99.90
21906;DHT22;11117;48.644;9.006;2023-02-15T08:39:03;3.80;99.90
21906;DHT22;11117;48.644;9.006;2023-02-15T08:41:33;3.90;99.90
21906;DHT22;11117;48.644;9.006;2023-02-15T08:44:01;3.90;99.90
21906;DHT22;11117;48.644;9.006;2023-02-15T08:46:29;4.00;99.90
21906;DHT22;11117;48.644;9.006;2023-02-15T08:48:55;4.00;99.90
21906;DHT22;11117;48.644;9.006;2023-02-15T08:51:24;4.00;99.90
21906;DHT22;11117;48.644;9.006;2023-02-15T08:53:55;4.10;99.90
21906;DHT22;11117;48.644;9.006;2023-02-15T08:56:23;4.30;99.90
21906;DHT22;11117;48.644;9.006;2023-02-15T08:58:49;4.40;99.90
21906;DHT22;11117;48.644;9.006;2023-02-15T09:01:17;4.50;99.90
21906;DHT22;11117;48.644;9.006;2023-02-15T09:03:44;4.60;99.90
21906;DHT22;11117;48.644;9.006;2023-02-15T09:06:10;4.60;99.90
21906;DHT22;11117;48.644;9.006;2023-02-15T09:08:36;4.70;99.90
21906;DHT22;11117;48.644;9.006;2023-02-15T09:11:09;4.80;99.90
21906;DHT22;11117;48.644;9.006;2023-02-15T09:13:37;5.00;99.90
21906;DHT22;11117;48.644;9.006;2023-02-15T09:16:04;5.30;99.90
21906;DHT22;11117;48.644;9.006;2023-02-15T09:18:34;5.40;99.90
21906;DHT22;11117;48.644;9.006;2023-02-15T09:21:05;5.60;99.90
21906;DHT22;11117;48.644;9.006;2023-02-15T09:23:30;5.70;99.90
21906;DHT22;11117;48.644;9.006;2023-02-15T09:25:56;6.00;99.90
21906;DHT22;11117;48.644;9.006;2023-02-15T09:28:21;6.30;99.90
21906;DHT22;11117;48.644;9.006;2023-02-15T09:30:47;6.50;99.90
21906;DHT22;11117;48.644;9.006;2023-02-15T09:33:13;6.80;99.90
21906;DHT22;11117;48.644;9.006;2023-02-15T09:35:38;6.90;99.90
21906;DHT22;11117;48.644;9.006;2023-02-15T09:38:04;7.20;99.90
21906;DHT22;11117;48.644;9.006;2023-02-15T09:40:36;7.40;99.90
21906;DHT22;11117;48.644;9.006;2023-02-15T09:43:20;7.60;99.90
21906;DHT22;11117;48.644;9.006;2023-02-15T09:48:40;8.10;99.90
21906;DHT22;11117;48.644;9.006;2023-02-15T09:51:30;8.30;99.90
21906;DHT22;11117;48.644;9.006;2023-02-15T09:54:19;8.50;99.90
21906;DHT22;11117;48.644;9.006;2023-02-15T09:56:53;8.60;99.90
21906;DHT22;11117;48.644;9.006;2023-02-15T10:13:41;9.70;99.90
21906;DHT22;11117;48.644;9.006;2023-02-15T10:19:08;9.80;99.90
21906;DHT22;11117;48.644;9.006;2023-02-15T10:27:12;10.10;99.90
21906;DHT22;11117;48.644;9.006;2023-02-15T10:29:45;10.20;99.90
21906;DHT22;11117;48.644;9.006;2023-02-15T10:32:24;10.30;99.90
21906;DHT22;11117;48.644;9.006;2023-02-15T10:35:13;10.40;99.90
21906;DHT22;11117;48.644;9.006;2023-02-15T10:37:46;10.50;99.90
21906;DHT22;11117;48.644;9.006;2023-02-15T10:51:02;11.10;99.90
21906;DHT22;11117;48.644;9.006;2023-02-15T10:56:24;11.40;99.90
21906;DHT22;11117;48.644;9.006;2023-02-15T10:58:57;11.50;99.90
21906;DHT22;11117;48.644;9.006;2023-02-15T11:06:26;11.80;99.90
21906;DHT22;11117;48.644;9.006;2023-02-15T11:08:57;11.90;99.90
21906;DHT22;11117;48.644;9.006;2023-02-15T11:11:29;12.00;99.90
21906;DHT22;11117;48.644;9.006;2023-02-15T11:13:59;12.10;99.90
21906;DHT22;11117;48.644;9.006;2023-02-15T11:16:29;12.30;99.90
21906;DHT22;11117;48.644;9.006;2023-02-15T11:19:11;12.30;99.90
21906;DHT22;11117;48.644;9.006;2023-02-15T11:21:50;12.40;98.20
21906;DHT22;11117;48.644;9.006;2023-02-15T11:24:19;12.50;98.60
21906;DHT22;11117;48.644;9.006;2023-02-15T11:26:50;12.40;97.60
21906;DHT22;11117;48.644;9.006;2023-02-15T11:31:59;12.50;98.20
21906;DHT22;11117;48.644;9.006;2023-02-15T11:34:49;12.30;97.10
21906;DHT22;11117;48.644;9.006;2023-02-15T11:37:18;12.10;97.00
21906;DHT22;11117;48.644;9.006;2023-02-15T11:39:45;12.20;96.50
21906;DHT22;11117;48.644;9.006;2023-02-15T11:42:16;12.20;94.60
21906;DHT22;11117;48.644;9.006;2023-02-15T11:45:26;12.20;95.00
21906;DHT22;11117;48.644;9.006;2023-02-15T11:47:53;12.30;94.80
21906;DHT22;11117;48.644;9.006;2023-02-15T11:50:25;12.50;95.10
21906;DHT22;11117;48.644;9.006;2023-02-15T11:53:04;12.70;94.40
21906;DHT22;11117;48.644;9.006;2023-02-15T11:55:30;12.80;94.00
21906;DHT22;11117;48.644;9.006;2023-02-15T11:58:45;13.00;93.30
21906;DHT22;11117;48.644;9.006;2023-02-15T12:01:42;12.80;92.60
21906;DHT22;11117;48.644;9.006;2023-02-15T12:06:47;13.00;92.70
21906;DHT22;11117;48.644;9.006;2023-02-15T12:09:37;13.10;92.70
21906;DHT22;11117;48.644;9.006;2023-02-15T12:12:30;13.30;92.10
21906;DHT22;11117;48.644;9.006;2023-02-15T12:15:01;13.40;91.20
21906;DHT22;11117;48.644;9.006;2023-02-15T12:17:33;13.50;91.20
21906;DHT22;11117;48.644;9.006;2023-02-15T12:22:48;13.80;91.20
21906;DHT22;11117;48.644;9.006;2023-02-15T12:25:35;13.90;90.10
21906;DHT22;11117;48.644;9.006;2023-02-15T12:28:02;13.90;87.90
21906;DHT22;11117;48.644;9.006;2023-02-15T12:30:46;13.90;86.40
21906;DHT22;11117;48.644;9.006;2023-02-15T12:33:51;13.90;87.30
21906;DHT22;11117;48.644;9.006;2023-02-15T12:36:20;14.00;87.50
21906;DHT22;11117;48.644;9.006;2023-02-15T12:39:21;14.10;90.40
21906;DHT22;11117;48.644;9.006;2023-02-15T12:42:00;14.10;88.30
21906;DHT22;11117;48.644;9.006;2023-02-15T12:44:34;14.20;86.40
21906;DHT22;11117;48.644;9.006;2023-02-15T12:47:03;14.30;88.90
21906;DHT22;11117;48.644;9.006;2023-02-15T12:49:38;14.40;90.30
21906;DHT22;11117;48.644;9.006;2023-02-15T12:52:13;14.40;89.20
21906;DHT22;11117;48.644;9.006;2023-02-15T12:54:51;14.50;90.80
21906;DHT22;11117;48.644;9.006;2023-02-15T12:57:32;14.50;90.20
21906;DHT22;11117;48.644;9.006;2023-02-15T13:00:00;14.60;90.30
21906;DHT22;11117;48.644;9.006;2023-02-15T13:04:52;14.60;88.10
21906;DHT22;11117;48.644;9.006;2023-02-15T13:07:19;14.60;87.80
21906;DHT22;11117;48.644;9.006;2023-02-15T13:09:44;14.70;88.00
21906;DHT22;11117;48.644;9.006;2023-02-15T13:12:11;14.70;89.00
21906;DHT22;11117;48.644;9.006;2023-02-15T13:14:44;14.80;85.20
21906;DHT22;11117;48.644;9.006;2023-02-15T13:17:12;14.80;89.70
21906;DHT22;11117;48.644;9.006;2023-02-15T13:19:51;14.90;89.30
21906;DHT22;11117;48.644;9.006;2023-02-15T13:22:22;14.80;88.50
21906;DHT22;11117;48.644;9.006;2023-02-15T13:24:51;14.80;85.90
21906;DHT22;11117;48.644;9.006;2023-02-15T13:27:21;14.90;89.50
21906;DHT22;11117;48.644;9.006;2023-02-15T13:29:53;14.90;87.50
21906;DHT22;11117;48.644;9.006;2023-02-15T13:32:29;14.80;87.80
21906;DHT22;11117;48.644;9.006;2023-02-15T13:34:58;14.80;88.70
21906;DHT22;11117;48.644;9.006;2023-02-15T13:40:38;14.90;90.40
21906;DHT22;11117;48.644;9.006;2023-02-15T13:59:15;14.80;91.60
21906;DHT22;11117;48.644;9.006;2023-02-15T14:04:29;14.60;90.90
21906;DHT22;11117;48.644;9.006;2023-02-15T14:07:31;14.60;91.00
21906;DHT22;11117;48.644;9.006;2023-02-15T14:10:31;14.50;90.40
21906;DHT22;11117;48.644;9.006;2023-02-15T14:16:03;14.30;91.80
21906;DHT22;11117;48.644;9.006;2023-02-15T14:21:31;14.30;91.40
21906;DHT22;11117;48.644;9.006;2023-02-15T14:24:08;14.30;91.80
21906;DHT22;11117;48.644;9.006;2023-02-15T14:26:41;14.30;91.50
21906;DHT22;11117;48.644;9.006;2023-02-15T14:29:41;14.30;91.60
21906;DHT22;11117;48.644;9.006;2023-02-15T14:32:14;14.30;91.30
21906;DHT22;11117;48.644;9.006;2023-02-15T14:35:02;14.30;91.60
21906;DHT22;11117;48.644;9.006;2023-02-15T14:46:16;14.00;91.60
21906;DHT22;11117;48.644;9.006;2023-02-15T14:48:47;14.00;91.70
21906;DHT22;11117;48.644;9.006;2023-02-15T14:54:08;13.90;92.30
21906;DHT22;11117;48.644;9.006;2023-02-15T14:56:33;13.80;91.30
21906;DHT22;11117;48.644;9.006;2023-02-15T14:59:12;13.80;91.20
21906;DHT22;11117;48.644;9.006;2023-02-15T15:01:38;13.70;91.30
21906;DHT22;11117;48.644;9.006;2023-02-15T15:07:08;13.60;92.10
21906;DHT22;11117;48.644;9.006;2023-02-15T15:09:39;13.60;91.90
21906;DHT22;11117;48.644;9.006;2023-02-15T15:14:47;13.50;91.50
21906;DHT22;11117;48.644;9.006;2023-02-15T15:17:52;13.40;91.70
21906;DHT22;11117;48.644;9.006;2023-02-15T15:20:50;13.30;91.50
21906;DHT22;11117;48.644;9.006;2023-02-15T15:50:54;12.50;90.60
21906;DHT22;11117;48.644;9.006;2023-02-15T15:53:24;12.40;90.20
21906;DHT22;11117;48.644;9.006;2023-02-15T15:55:54;12.30;90.20
21906;DHT22;11117;48.644;9.006;2023-02-15T15:58:20;12.20;90.40
21906;DHT22;11117;48.644;9.006;2023-02-15T16:00:50;12.00;90.20
21906;DHT22;11117;48.644;9.006;2023-02-15T16:03:21;11.90;90.40
21906;DHT22;11117;48.644;9.006;2023-02-15T16:05:47;11.70;89.90
21906;DHT22;11117;48.644;9.006;2023-02-15T16:08:13;11.70;89.60
21906;DHT22;11117;48.644;9.006;2023-02-15T16:10:40;11.60;89.90
21906;DHT22;11117;48.644;9.006;2023-02-15T16:13:06;11.50;89.40
21906;DHT22;11117;48.644;9.006;2023-02-15T16:15:46;11.40;90.50
21906;DHT22;11117;48.644;9.006;2023-02-15T16:18:17;11.30;90.10
21906;DHT22;11117;48.644;9.006;2023-02-15T16:20:57;11.20;90.70
21906;DHT22;11117;48.644;9.006;2023-02-15T16:23:55;11.10;90.70
21906;DHT22;11117;48.644;9.006;2023-02-15T16:29:17;10.90;91.20
21906;DHT22;11117;48.644;9.006;2023-02-15T16:32:05;10.80;91.10
21906;DHT22;11117;48.644;9.006;2023-02-15T16:34:32;10.70;91.20
21906;DHT22;11117;48.644;9.006;2023-02-15T16:37:18;10.50;91.40
21906;DHT22;11117;48.644;9.006;2023-02-15T16:39:45;10.50;91.70
21906;DHT22;11117;48.644;9.006;2023-02-15T16:42:11;10.30;91.80
21906;DHT22;11117;48.644;9.006;2023-02-15T16:44:40;10.20;91.90
21906;DHT22;11117;48.644;9.006;2023-02-15T16:47:12;10.10;92.10
21906;DHT22;11117;48.644;9.006;2023-02-15T16:49:44;10.00;92.50
21906;DHT22;11117;48.644;9.006;2023-02-15T16:52:15;9.90;93.40
21906;DHT22;11117;48.644;9.006;2023-02-15T16:54:44;9.80;93.50
21906;DHT22;11117;48.644;9.006;2023-02-15T16:57:19;9.70;93.80
21906;DHT22;11117;48.644;9.006;2023-02-15T16:59:50;9.60;94.00
21906;DHT22;11117;48.644;9.006;2023-02-15T17:02:20;9.50;94.20
21906;DHT22;11117;48.644;9.006;2023-02-15T17:07:26;9.30;95.20
21906;DHT22;11117;48.644;9.006;2023-02-15T17:09:56;9.30;95.10
21906;DHT22;11117;48.644;9.006;2023-02-15T17:17:50;9.10;95.70
21906;DHT22;11117;48.644;9.006;2023-02-15T17:20:17;9.00;96.10
21906;DHT22;11117;48.644;9.006;2023-02-15T17:22:43;9.00;96.10
21906;DHT22;11117;48.644;9.006;2023-02-15T17:25:20;8.90;96.00
21906;DHT22;11117;48.644;9.006;2023-02-15T17:27:51;8.90;96.10
21906;DHT22;11117;48.644;9.006;2023-02-15T17:30:25;8.80;96.20
21906;DHT22;11117;48.644;9.006;2023-02-15T17:32:54;8.80;96.20
21906;DHT22;11117;48.644;9.006;2023-02-15T17:35:25;8.70;96.30
21906;DHT22;11117;48.644;9.006;2023-02-15T17:38:01;8.60;96.60
21906;DHT22;11117;48.644;9.006;2023-02-15T17:40:33;8.40;96.70
21906;DHT22;11117;48.644;9.006;2023-02-15T17:42:59;8.30;97.30
21906;DHT22;11117;48.644;9.006;2023-02-15T17:45:30;8.10;97.20
21906;DHT22;11117;48.644;9.006;2023-02-15T17:47:56;8.00;97.30
21906;DHT22;11117;48.644;9.006;2023-02-15T17:50:24;7.90;97.60
21906;DHT22;11117;48.644;9.006;2023-02-15T17:52:51;7.80;97.80
21906;DHT22;11117;48.644;9.006;2023-02-15T17:55:20;7.60;97.80
21906;DHT22;11117;48.644;9.006;2023-02-15T17:57:46;7.50;97.90
21906;DHT22;11117;48.644;9.006;2023-02-15T18:00:13;7.40;97.80
21906;DHT22;11117;48.644;9.006;2023-02-15T18:02:40;7.40;97.90
21906;DHT22;11117;48.644;9.006;2023-02-15T18:05:12;7.30;98.00
21906;DHT22;11117;48.644;9.006;2023-02-15T18:07:38;7.10;98.00
21906;DHT22;11117;48.644;9.006;2023-02-15T18:10:15;7.00;98.10
21906;DHT22;11117;48.644;9.006;2023-02-15T18:12:41;6.90;98.30
21906;DHT22;11117;48.644;9.006;2023-02-15T18:15:07;6.80;98.40
21906;DHT22;11117;48.644;9.006;2023-02-15T18:17:37;6.70;98.60
21906;DHT22;11117;48.644;9.006;2023-02-15T18:20:06;6.60;98.90
21906;DHT22;11117;48.644;9.006;2023-02-15T18:22:34;6.60;98.70
21906;DHT22;11117;48.644;9.006;2023-02-15T18:25:00;6.60;99.00
21906;DHT22;11117;48.644;9.006;2023-02-15T18:27:25;6.60;99.30
21906;DHT22;11117;48.644;9.006;2023-02-15T18:29:51;6.50;99.40
21906;DHT22;11117;48.644;9.006;2023-02-15T18:32:21;6.40;99.70
21906;DHT22;11117;48.644;9.006;2023-02-15T18:34:49;6.30;99.90